sensor_id;sensor_type;location;lat;lon;timestamp;pressure;altitude;pressure_sealevel;temperature;humidity
75521;BME280;64102;48.628;9.002;2022-12-18T00:01:28;97024.97;;;-15.42;84.83
75521;BME280;64102;48.628;9.002;2022-12-18T00:03:55;97026.88;;;-15.32;86.67
75521;BME280;64102;48.628;9.002;2022-12-18T00:06:21;97030.66;;;-15.12;87.14
75521;BME280;64102;48.628;9.002;2022-12-18T00:08:47;97024.00;;;-15.15;86.80
75521;BME280;64102;48.628;9.002;2022-12-18T00:11:15;97024.81;;;-15.16;86.05
75521;BME280;64102;48.628;9.002;2022-12-18T00:13:41;97024.97;;;-15.10;86.02
75521;BME280;64102;48.628;9.002;2022-12-18T00:16:09;97005.78;;;-15.17;85.91
75521;BME280;64102;48.628;9.002;2022-12-18T00:18:34;97010.97;;;-15.08;86.73
75521;BME280;64102;48.628;9.002;2022-12-18T00:21:01;97009.31;;;-15.07;86.56
75521;BME280;64102;48.628;9.002;2022-12-18T00:23:28;97015.28;;;-14.99;86.72
75521;BME280;64102;48.628;9.002;2022-12-18T00:25:54;97019.72;;;-14.86;85.50
75521;BME280;64102;48.628;9.002;2022-12-18T00:28:19;97024.59;;;-14.89;85.42
75521;BME280;64102;48.628;9.002;2022-12-18T00:30:45;97024.31;;;-15.01;84.42
75521;BME280;64102;48.628;9.002;2022-12-18T00:33:10;97036.66;;;-15.04;84.47
75521;BME280;64102;48.628;9.002;2022-12-18T00:35:35;97041.88;;;-14.90;85.62
75521;BME280;64102;48.628;9.002;2022-12-18T00:38:01;97032.34;;;-14.75;85.46
75521;BME280;64102;48.628;9.002;2022-12-18T00:40:26;97031.88;;;-14.95;84.82
75521;BME280;64102;48.628;9.002;2022-12-18T00:42:52;97024.97;;;-15.08;84.98
75521;BME280;64102;48.628;9.002;2022-12-18T00:45:29;97030.09;;;-15.36;83.92
75521;BME280;64102;48.628;9.002;2022-12-18T00:47:55;97018.19;;;-15.51;84.08
75521;BME280;64102;48.628;9.002;2022-12-18T00:50:22;97015.31;;;-15.68;84.14
75521;BME280;64102;48.628;9.002;2022-12-18T00:52:47;97024.44;;;-15.65;86.50
75521;BME280;64102;48.628;9.002;2022-12-18T00:55:13;97025.22;;;-15.66;85.57
75521;BME280;64102;48.628;9.002;2022-12-18T00:57:39;97032.38;;;-15.77;84.62
75521;BME280;64102;48.628;9.002;2022-12-18T01:00:07;97040.03;;;-15.98;84.39
75521;BME280;64102;48.628;9.002;2022-12-18T01:02:33;97040.69;;;-16.05;83.33
75521;BME280;64102;48.628;9.002;2022-12-18T01:04:58;97039.59;;;-16.14;82.65
75521;BME280;64102;48.628;9.002;2022-12-18T01:07:24;97033.78;;;-16.16;83.63
75521;BME280;64102;48.628;9.002;2022-12-18T01:09:49;97034.25;;;-16.29;84.04
75521;BME280;64102;48.628;9.002;2022-12-18T01:12:14;97031.22;;;-16.19;85.41
75521;BME280;64102;48.628;9.002;2022-12-18T01:14:40;97036.97;;;-16.20;85.08
75521;BME280;64102;48.628;9.002;2022-12-18T01:17:05;97025.03;;;-16.35;84.56
75521;BME280;64102;48.628;9.002;2022-12-18T01:19:31;97029.88;;;-16.38;85.83
75521;BME280;64102;48.628;9.002;2022-12-18T01:21:56;97024.69;;;-16.17;87.46
75521;BME280;64102;48.628;9.002;2022-12-18T01:24:22;97033.69;;;-15.89;87.14
75521;BME280;64102;48.628;9.002;2022-12-18T01:26:47;97031.41;;;-15.82;86.01
75521;BME280;64102;48.628;9.002;2022-12-18T01:29:12;97028.41;;;-15.72;85.44
75521;BME280;64102;48.628;9.002;2022-12-18T01:31:38;97020.97;;;-15.72;85.62
75521;BME280;64102;48.628;9.002;2022-12-18T01:34:04;97026.47;;;-15.49;85.71
75521;BME280;64102;48.628;9.002;2022-12-18T01:36:37;97031.16;;;-15.25;86.02
75521;BME280;64102;48.628;9.002;2022-12-18T01:39:07;97037.34;;;-15.08;86.20
75521;BME280;64102;48.628;9.002;2022-12-18T01:41:35;97044.41;;;-14.89;86.73
75521;BME280;64102;48.628;9.002;2022-12-18T01:49:55;97037.50;;;-15.02;83.81
75521;BME280;64102;48.628;9.002;2022-12-18T01:52:21;97027.72;;;-14.97;83.39
75521;BME280;64102;48.628;9.002;2022-12-18T01:54:48;97026.88;;;-14.98;83.12
75521;BME280;64102;48.628;9.002;2022-12-18T01:57:16;97022.81;;;-14.96;82.35
75521;BME280;64102;48.628;9.002;2022-12-18T01:59:42;97021.19;;;-14.94;82.08
75521;BME280;64102;48.628;9.002;2022-12-18T02:02:10;97023.81;;;-14.88;83.13
75521;BME280;64102;48.628;9.002;2022-12-18T02:04:36;97015.91;;;-14.72;84.54
75521;BME280;64102;48.628;9.002;2022-12-18T02:07:36;97020.59;;;-14.45;85.96
75521;BME280;64102;48.628;9.002;2022-12-18T02:10:07;97037.56;;;-14.24;85.61
75521;BME280;64102;48.628;9.002;2022-12-18T02:12:46;97028.72;;;-14.12;85.68
75521;BME280;64102;48.628;9.002;2022-12-18T02:15:26;97022.91;;;-14.12;86.21
75521;BME280;64102;48.628;9.002;2022-12-18T02:18:05;97034.44;;;-14.14;85.54
75521;BME280;64102;48.628;9.002;2022-12-18T02:28:28;97033.78;;;-14.05;85.56
75521;BME280;64102;48.628;9.002;2022-12-18T02:30:58;97040.72;;;-13.88;86.78
75521;BME280;64102;48.628;9.002;2022-12-18T02:33:27;97048.22;;;-13.41;89.61
75521;BME280;64102;48.628;9.002;2022-12-18T02:35:54;97048.88;;;-13.00;91.16
75521;BME280;64102;48.628;9.002;2022-12-18T02:38:21;97041.16;;;-12.63;91.04
75521;BME280;64102;48.628;9.002;2022-12-18T02:40:48;97049.06;;;-12.34;91.80
75521;BME280;64102;48.628;9.002;2022-12-18T02:43:15;97054.47;;;-12.01;92.13
75521;BME280;64102;48.628;9.002;2022-12-18T02:45:55;97049.00;;;-11.69;92.65
75521;BME280;64102;48.628;9.002;2022-12-18T02:48:24;97050.81;;;-11.55;92.38
75521;BME280;64102;48.628;9.002;2022-12-18T02:51:06;97051.84;;;-11.36;92.25
75521;BME280;64102;48.628;9.002;2022-12-18T02:53:36;97048.66;;;-11.20;92.05
75521;BME280;64102;48.628;9.002;2022-12-18T02:56:17;97040.56;;;-10.98;92.17
75521;BME280;64102;48.628;9.002;2022-12-18T03:01:15;97047.47;;;-10.66;91.73
75521;BME280;64102;48.628;9.002;2022-12-18T03:03:57;97040.78;;;-10.70;90.53
75521;BME280;64102;48.628;9.002;2022-12-18T03:06:28;97039.16;;;-10.68;90.70
75521;BME280;64102;48.628;9.002;2022-12-18T03:09:09;97037.53;;;-10.60;90.80
75521;BME280;64102;48.628;9.002;2022-12-18T03:11:40;97045.81;;;-10.64;90.17
75521;BME280;64102;48.628;9.002;2022-12-18T03:14:26;97048.25;;;-10.73;89.97
75521;BME280;64102;48.628;9.002;2022-12-18T03:16:58;97048.34;;;-10.61;90.42
75521;BME280;64102;48.628;9.002;2022-12-18T03:19:27;97056.66;;;-10.58;89.82
75521;BME280;64102;48.628;9.002;2022-12-18T03:21:56;97056.69;;;-10.56;89.65
75521;BME280;64102;48.628;9.002;2022-12-18T03:24:23;97055.00;;;-10.57;89.47
75521;BME280;64102;48.628;9.002;2022-12-18T03:26:52;97057.56;;;-10.51;89.54
75521;BME280;64102;48.628;9.002;2022-12-18T03:29:31;97045.88;;;-10.57;88.85
75521;BME280;64102;48.628;9.002;2022-12-18T03:32:05;97047.47;;;-10.66;88.62
75521;BME280;64102;48.628;9.002;2022-12-18T03:34:34;97056.66;;;-10.61;89.25
75521;BME280;64102;48.628;9.002;2022-12-18T03:37:01;97059.94;;;-10.65;88.87
75521;BME280;64102;48.628;9.002;2022-12-18T03:39:26;97050.78;;;-10.66;88.74
75521;BME280;64102;48.628;9.002;2022-12-18T03:44:43;97054.06;;;-10.74;88.75
75521;BME280;64102;48.628;9.002;2022-12-18T03:47:27;97055.72;;;-10.73;88.81
75521;BME280;64102;48.628;9.002;2022-12-18T03:52:53;97058.06;;;-10.92;88.62
75521;BME280;64102;48.628;9.002;2022-12-18T03:55:24;97053.00;;;-11.01;89.38
75521;BME280;64102;48.628;9.002;2022-12-18T03:57:52;97046.41;;;-10.99;89.83
75521;BME280;64102;48.628;9.002;2022-12-18T04:00:19;97046.44;;;-10.91;89.40
75521;BME280;64102;48.628;9.002;2022-12-18T04:02:49;97049.75;;;-10.94;89.48
75521;BME280;64102;48.628;9.002;2022-12-18T04:05:17;97053.88;;;-10.96;89.00
75521;BME280;64102;48.628;9.002;2022-12-18T04:07:45;97063.03;;;-10.95;88.69
75521;BME280;64102;48.628;9.002;2022-12-18T04:10:12;97065.50;;;-10.99;88.50
75521;BME280;64102;48.628;9.002;2022-12-18T04:12:38;97059.72;;;-10.95;89.07
75521;BME280;64102;48.628;9.002;2022-12-18T04:15:05;97062.09;;;-11.06;88.76
75521;BME280;64102;48.628;9.002;2022-12-18T04:17:30;97050.53;;;-10.98;89.59
75521;BME280;64102;48.628;9.002;2022-12-18T04:19:56;97053.81;;;-11.05;89.59
75521;BME280;64102;48.628;9.002;2022-12-18T04:22:21;97056.34;;;-11.00;89.87
75521;BME280;64102;48.628;9.002;2022-12-18T04:24:47;97056.44;;;-10.90;90.08
75521;BME280;64102;48.628;9.002;2022-12-18T04:27:12;97058.06;;;-10.92;89.07
75521;BME280;64102;48.628;9.002;2022-12-18T04:29:37;97061.41;;;-10.91;89.61
75521;BME280;64102;48.628;9.002;2022-12-18T04:32:03;97067.25;;;-10.88;89.40
75521;BME280;64102;48.628;9.002;2022-12-18T04:34:28;97079.66;;;-10.94;89.67
75521;BME280;64102;48.628;9.002;2022-12-18T04:36:53;97070.56;;;-10.87;89.41
75521;BME280;64102;48.628;9.002;2022-12-18T04:39:19;97060.63;;;-10.85;89.40
75521;BME280;64102;48.628;9.002;2022-12-18T04:41:44;97060.66;;;-10.79;89.10
75521;BME280;64102;48.628;9.002;2022-12-18T04:44:09;97059.03;;;-10.77;89.05
75521;BME280;64102;48.628;9.002;2022-12-18T04:46:35;97057.31;;;-10.83;89.37
75521;BME280;64102;48.628;9.002;2022-12-18T04:49:00;97066.41;;;-10.88;88.79
75521;BME280;64102;48.628;9.002;2022-12-18T04:51:26;97059.66;;;-11.00;88.79
75521;BME280;64102;48.628;9.002;2022-12-18T04:53:52;97055.41;;;-11.10;88.36
75521;BME280;64102;48.628;9.002;2022-12-18T04:56:17;97046.97;;;-11.25;88.51
75521;BME280;64102;48.628;9.002;2022-12-18T04:58:44;97041.13;;;-11.27;88.48
75521;BME280;64102;48.628;9.002;2022-12-18T05:01:11;97043.59;;;-11.30;88.62
75521;BME280;64102;48.628;9.002;2022-12-18T05:03:37;97047.78;;;-11.29;87.94
75521;BME280;64102;48.628;9.002;2022-12-18T05:06:03;97052.69;;;-11.36;88.03
75521;BME280;64102;48.628;9.002;2022-12-18T05:08:29;97053.47;;;-11.40;88.21
75521;BME280;64102;48.628;9.002;2022-12-18T05:11:02;97046.69;;;-11.51;88.12
75521;BME280;64102;48.628;9.002;2022-12-18T05:13:28;97059.94;;;-11.57;88.24
75521;BME280;64102;48.628;9.002;2022-12-18T05:15:55;97056.44;;;-11.75;87.69
75521;BME280;64102;48.628;9.002;2022-12-18T05:18:21;97062.19;;;-11.78;88.47
75521;BME280;64102;48.628;9.002;2022-12-18T05:20:47;97059.75;;;-11.73;87.99
75521;BME280;64102;48.628;9.002;2022-12-18T05:23:12;97057.06;;;-11.90;87.64
75521;BME280;64102;48.628;9.002;2022-12-18T05:25:38;97051.16;;;-12.00;88.21
75521;BME280;64102;48.628;9.002;2022-12-18T05:28:03;97050.03;;;-12.21;87.30
75521;BME280;64102;48.628;9.002;2022-12-18T05:30:29;97051.63;;;-12.28;87.72
75521;BME280;64102;48.628;9.002;2022-12-18T05:32:54;97052.34;;;-12.35;88.57
75521;BME280;64102;48.628;9.002;2022-12-18T05:35:20;97047.88;;;-12.57;86.89
75521;BME280;64102;48.628;9.002;2022-12-18T05:37:45;97061.88;;;-12.62;87.77
75521;BME280;64102;48.628;9.002;2022-12-18T05:40:11;97064.66;;;-12.46;88.66
75521;BME280;64102;48.628;9.002;2022-12-18T05:42:37;97065.31;;;-12.56;88.03
75521;BME280;64102;48.628;9.002;2022-12-18T05:45:03;97061.69;;;-12.76;87.26
75521;BME280;64102;48.628;9.002;2022-12-18T05:47:28;97058.16;;;-12.90;88.21
75521;BME280;64102;48.628;9.002;2022-12-18T05:49:54;97056.31;;;-13.03;87.74
75521;BME280;64102;48.628;9.002;2022-12-18T05:52:19;97056.19;;;-13.11;87.42
75521;BME280;64102;48.628;9.002;2022-12-18T05:54:45;97049.44;;;-13.20;87.79
75521;BME280;64102;48.628;9.002;2022-12-18T05:57:10;97044.38;;;-13.26;88.44
75521;BME280;64102;48.628;9.002;2022-12-18T05:59:35;97045.78;;;-13.38;87.90
75521;BME280;64102;48.628;9.002;2022-12-18T06:02:01;97047.34;;;-13.43;87.91
75521;BME280;64102;48.628;9.002;2022-12-18T06:04:27;97044.66;;;-13.55;86.88
75521;BME280;64102;48.628;9.002;2022-12-18T06:06:53;97046.13;;;-13.65;86.76
75521;BME280;64102;48.628;9.002;2022-12-18T06:09:19;97058.53;;;-13.67;87.90
75521;BME280;64102;48.628;9.002;2022-12-18T06:11:44;97060.88;;;-13.73;87.55
75521;BME280;64102;48.628;9.002;2022-12-18T06:14:10;97066.38;;;-13.87;86.40
75521;BME280;64102;48.628;9.002;2022-12-18T06:16:35;97074.41;;;-13.99;86.46
75521;BME280;64102;48.628;9.002;2022-12-18T06:19:03;97079.88;;;-13.75;88.64
75521;BME280;64102;48.628;9.002;2022-12-18T06:21:29;97083.13;;;-13.77;87.76
75521;BME280;64102;48.628;9.002;2022-12-18T06:23:55;97085.81;;;-13.65;88.76
75521;BME280;64102;48.628;9.002;2022-12-18T06:26:20;97080.84;;;-13.65;88.54
75521;BME280;64102;48.628;9.002;2022-12-18T06:28:46;97085.06;;;-13.61;88.36
75521;BME280;64102;48.628;9.002;2022-12-18T06:31:11;97089.03;;;-13.71;87.54
75521;BME280;64102;48.628;9.002;2022-12-18T06:33:37;97097.81;;;-13.86;86.61
75521;BME280;64102;48.628;9.002;2022-12-18T06:38:32;97094.50;;;-13.87;87.88
75521;BME280;64102;48.628;9.002;2022-12-18T06:40:58;97099.88;;;-13.66;88.78
75521;BME280;64102;48.628;9.002;2022-12-18T06:43:23;97099.00;;;-13.68;88.21
75521;BME280;64102;48.628;9.002;2022-12-18T06:45:49;97098.41;;;-13.56;88.08
75521;BME280;64102;48.628;9.002;2022-12-18T06:48:18;97098.41;;;-13.56;86.86
75521;BME280;64102;48.628;9.002;2022-12-18T06:50:45;97098.88;;;-13.75;86.23
75521;BME280;64102;48.628;9.002;2022-12-18T06:53:11;97094.72;;;-13.76;86.24
75521;BME280;64102;48.628;9.002;2022-12-18T06:55:36;97096.66;;;-13.61;87.22
75521;BME280;64102;48.628;9.002;2022-12-18T06:58:02;97103.38;;;-13.56;87.63
75521;BME280;64102;48.628;9.002;2022-12-18T07:00:27;97111.06;;;-13.44;88.39
75521;BME280;64102;48.628;9.002;2022-12-18T07:02:52;97108.16;;;-13.22;88.69
75521;BME280;64102;48.628;9.002;2022-12-18T07:05:18;97105.69;;;-13.20;88.48
75521;BME280;64102;48.628;9.002;2022-12-18T07:07:43;97120.69;;;-13.14;89.38
75521;BME280;64102;48.628;9.002;2022-12-18T07:10:09;97124.13;;;-13.06;90.01
75521;BME280;64102;48.628;9.002;2022-12-18T07:12:34;97132.38;;;-13.07;88.84
75521;BME280;64102;48.628;9.002;2022-12-18T07:15:00;97139.50;;;-13.27;87.16
75521;BME280;64102;48.628;9.002;2022-12-18T07:17:25;97133.66;;;-13.30;87.23
75521;BME280;64102;48.628;9.002;2022-12-18T07:19:50;97129.03;;;-13.10;86.97
75521;BME280;64102;48.628;9.002;2022-12-18T07:22:16;97128.41;;;-12.99;86.90
75521;BME280;64102;48.628;9.002;2022-12-18T07:24:41;97128.69;;;-12.81;87.51
75521;BME280;64102;48.628;9.002;2022-12-18T07:27:06;97123.53;;;-12.93;86.04
75521;BME280;64102;48.628;9.002;2022-12-18T07:29:32;97131.69;;;-12.98;86.58
75521;BME280;64102;48.628;9.002;2022-12-18T07:31:57;97134.09;;;-13.03;85.80
75521;BME280;64102;48.628;9.002;2022-12-18T07:34:22;97126.56;;;-13.10;85.52
75521;BME280;64102;48.628;9.002;2022-12-18T07:36:48;97124.13;;;-13.06;86.79
75521;BME280;64102;48.628;9.002;2022-12-18T07:39:13;97128.59;;;-12.87;87.68
75521;BME280;64102;48.628;9.002;2022-12-18T07:41:39;97115.47;;;-12.80;87.27
75521;BME280;64102;48.628;9.002;2022-12-18T07:44:10;97119.81;;;-12.66;87.27
75521;BME280;64102;48.628;9.002;2022-12-18T07:46:35;97122.91;;;-12.29;88.60
75521;BME280;64102;48.628;9.002;2022-12-18T07:49:01;97132.06;;;-12.24;87.43
75521;BME280;64102;48.628;9.002;2022-12-18T07:51:26;97135.41;;;-12.24;86.88
75521;BME280;64102;48.628;9.002;2022-12-18T07:53:51;97139.59;;;-11.55;85.35
75521;BME280;64102;48.628;9.002;2022-12-18T07:56:17;97139.94;;;-10.40;84.72
75521;BME280;64102;48.628;9.002;2022-12-18T07:58:42;97133.53;;;-10.02;83.61
75521;BME280;64102;48.628;9.002;2022-12-18T08:01:13;97137.13;;;-9.53;81.20
75521;BME280;64102;48.628;9.002;2022-12-18T08:03:41;97133.22;;;-8.66;79.96
75521;BME280;64102;48.628;9.002;2022-12-18T08:06:08;97142.28;;;-7.60;75.01
75521;BME280;64102;48.628;9.002;2022-12-18T08:08:34;97128.47;;;-6.67;74.99
75521;BME280;64102;48.628;9.002;2022-12-18T08:11:01;97130.72;;;-6.30;65.50
75521;BME280;64102;48.628;9.002;2022-12-18T08:13:26;97141.91;;;-5.75;68.33
75521;BME280;64102;48.628;9.002;2022-12-18T08:16:03;97127.34;;;-5.44;63.10
75521;BME280;64102;48.628;9.002;2022-12-18T08:18:29;97141.25;;;-5.13;67.24
75521;BME280;64102;48.628;9.002;2022-12-18T08:20:57;97130.97;;;-4.96;63.88
75521;BME280;64102;48.628;9.002;2022-12-18T08:23:22;97144.31;;;-4.31;65.23
75521;BME280;64102;48.628;9.002;2022-12-18T08:25:47;97132.13;;;-4.03;63.68
75521;BME280;64102;48.628;9.002;2022-12-18T08:28:13;97144.72;;;-3.10;65.31
75521;BME280;64102;48.628;9.002;2022-12-18T08:30:41;97141.63;;;-2.83;59.09
75521;BME280;64102;48.628;9.002;2022-12-18T08:33:07;97136.78;;;-3.35;57.99
75521;BME280;64102;48.628;9.002;2022-12-18T08:35:35;97149.03;;;-3.15;60.25
75521;BME280;64102;48.628;9.002;2022-12-18T08:38:01;97143.63;;;-2.58;59.37
75521;BME280;64102;48.628;9.002;2022-12-18T08:40:26;97140.97;;;-2.15;58.04
75521;BME280;64102;48.628;9.002;2022-12-18T08:42:52;97136.66;;;-2.10;56.40
75521;BME280;64102;48.628;9.002;2022-12-18T08:45:36;97140.50;;;-2.31;55.98
75521;BME280;64102;48.628;9.002;2022-12-18T08:48:01;97146.16;;;-3.41;57.43
75521;BME280;64102;48.628;9.002;2022-12-18T08:50:26;97143.97;;;-4.10;60.90
75521;BME280;64102;48.628;9.002;2022-12-18T08:52:52;97131.66;;;-4.28;65.13
75521;BME280;64102;48.628;9.002;2022-12-18T08:55:17;97129.66;;;-4.62;67.24
75521;BME280;64102;48.628;9.002;2022-12-18T08:57:43;97127.34;;;-4.77;70.36
75521;BME280;64102;48.628;9.002;2022-12-18T09:00:08;97126.88;;;-5.03;70.98
75521;BME280;64102;48.628;9.002;2022-12-18T09:02:34;97126.34;;;-5.28;72.68
75521;BME280;64102;48.628;9.002;2022-12-18T09:04:59;97129.34;;;-5.72;72.27
75521;BME280;64102;48.628;9.002;2022-12-18T09:07:26;97129.72;;;-6.08;70.94
75521;BME280;64102;48.628;9.002;2022-12-18T09:09:51;97135.47;;;-5.97;69.84
75521;BME280;64102;48.628;9.002;2022-12-18T09:12:16;97131.69;;;-6.44;70.97
75521;BME280;64102;48.628;9.002;2022-12-18T09:14:42;97129.34;;;-6.71;74.43
75521;BME280;64102;48.628;9.002;2022-12-18T09:17:07;97122.44;;;-6.40;78.90
75521;BME280;64102;48.628;9.002;2022-12-18T09:19:32;97120.47;;;-6.06;78.57
75521;BME280;64102;48.628;9.002;2022-12-18T09:21:58;97121.75;;;-5.69;77.83
75521;BME280;64102;48.628;9.002;2022-12-18T09:24:23;97120.22;;;-5.07;76.09
75521;BME280;64102;48.628;9.002;2022-12-18T09:26:53;97111.09;;;-4.55;73.29
75521;BME280;64102;48.628;9.002;2022-12-18T09:29:18;97111.34;;;-3.67;72.24
75521;BME280;64102;48.628;9.002;2022-12-18T09:31:44;97114.75;;;-2.85;63.73
75521;BME280;64102;48.628;9.002;2022-12-18T09:34:09;97116.19;;;-1.69;63.21
75521;BME280;64102;48.628;9.002;2022-12-18T09:36:35;97111.69;;;-0.96;59.96
75521;BME280;64102;48.628;9.002;2022-12-18T09:39:00;97110.91;;;-1.29;58.05
75521;BME280;64102;48.628;9.002;2022-12-18T09:44:03;97115.34;;;0.79;54.78
75521;BME280;64102;48.628;9.002;2022-12-18T09:46:34;97107.50;;;1.09;51.65
75521;BME280;64102;48.628;9.002;2022-12-18T09:49:04;97102.53;;;1.72;51.49
75521;BME280;64102;48.628;9.002;2022-12-18T09:51:34;97103.19;;;2.99;50.39
75521;BME280;64102;48.628;9.002;2022-12-18T09:54:04;97106.22;;;3.80;48.29
75521;BME280;64102;48.628;9.002;2022-12-18T09:56:35;97108.94;;;3.77;47.58
75521;BME280;64102;48.628;9.002;2022-12-18T09:59:03;97108.59;;;3.66;48.94
75521;BME280;64102;48.628;9.002;2022-12-18T10:01:30;97121.84;;;4.10;47.59
75521;BME280;64102;48.628;9.002;2022-12-18T10:03:56;97111.25;;;4.35;47.78
75521;BME280;64102;48.628;9.002;2022-12-18T10:06:36;97110.19;;;4.22;45.12
75521;BME280;64102;48.628;9.002;2022-12-18T10:09:53;97113.81;;;3.82;47.69
75521;BME280;64102;48.628;9.002;2022-12-18T10:12:14;97113.56;;;4.39;46.34
75521;BME280;64102;48.628;9.002;2022-12-18T10:14:52;97120.78;;;4.66;43.48
75521;BME280;64102;48.628;9.002;2022-12-18T10:20:20;97122.41;;;4.84;43.38
75521;BME280;64102;48.628;9.002;2022-12-18T10:23:33;97118.47;;;4.94;42.84
75521;BME280;64102;48.628;9.002;2022-12-18T10:28:30;97119.59;;;5.21;43.69
75521;BME280;64102;48.628;9.002;2022-12-18T10:30:56;97116.09;;;5.07;41.87
75521;BME280;64102;48.628;9.002;2022-12-18T10:33:24;97112.09;;;4.85;43.30
75521;BME280;64102;48.628;9.002;2022-12-18T10:35:52;97104.44;;;4.85;42.83
75521;BME280;64102;48.628;9.002;2022-12-18T10:43:21;97108.69;;;3.46;45.82
75521;BME280;64102;48.628;9.002;2022-12-18T10:46:17;97114.41;;;4.05;43.89
75521;BME280;64102;48.628;9.002;2022-12-18T10:51:29;97113.19;;;4.30;45.32
75521;BME280;64102;48.628;9.002;2022-12-18T10:56:39;97113.41;;;1.98;48.35
75521;BME280;64102;48.628;9.002;2022-12-18T10:59:07;97108.41;;;2.37;48.50
75521;BME280;64102;48.628;9.002;2022-12-18T11:01:53;97096.63;;;2.93;47.55
75521;BME280;64102;48.628;9.002;2022-12-18T11:04:22;97087.41;;;3.47;45.75
75521;BME280;64102;48.628;9.002;2022-12-18T11:07:01;97087.19;;;3.87;45.25
75521;BME280;64102;48.628;9.002;2022-12-18T11:09:28;97080.78;;;4.97;41.84
75521;BME280;64102;48.628;9.002;2022-12-18T11:11:56;97084.34;;;5.73;42.32
75521;BME280;64102;48.628;9.002;2022-12-18T11:14:43;97080.13;;;6.34;39.04
75521;BME280;64102;48.628;9.002;2022-12-18T11:17:34;97075.50;;;6.24;40.09
75521;BME280;64102;48.628;9.002;2022-12-18T11:20:03;97074.28;;;6.88;37.71
75521;BME280;64102;48.628;9.002;2022-12-18T11:22:32;97077.06;;;6.99;38.46
75521;BME280;64102;48.628;9.002;2022-12-18T11:27:38;97080.25;;;7.99;35.85
75521;BME280;64102;48.628;9.002;2022-12-18T11:30:29;97077.81;;;7.83;35.92
75521;BME280;64102;48.628;9.002;2022-12-18T11:33:14;97070.19;;;6.71;37.03
75521;BME280;64102;48.628;9.002;2022-12-18T11:38:24;97074.44;;;6.28;38.36
75521;BME280;64102;48.628;9.002;2022-12-18T11:41:07;97060.78;;;5.82;38.77
75521;BME280;64102;48.628;9.002;2022-12-18T11:43:47;97061.38;;;5.72;39.25
75521;BME280;64102;48.628;9.002;2022-12-18T11:46:19;97062.22;;;5.88;39.64
75521;BME280;64102;48.628;9.002;2022-12-18T11:49:17;97064.72;;;6.04;40.02
75521;BME280;64102;48.628;9.002;2022-12-18T11:51:48;97053.69;;;6.47;39.62
75521;BME280;64102;48.628;9.002;2022-12-18T11:54:15;97049.53;;;5.08;43.88
75521;BME280;64102;48.628;9.002;2022-12-18T11:56:56;97050.22;;;4.46;45.88
75521;BME280;64102;48.628;9.002;2022-12-18T11:59:43;97057.78;;;3.62;47.73
75521;BME280;64102;48.628;9.002;2022-12-18T12:05:24;97058.44;;;3.84;47.98
75521;BME280;64102;48.628;9.002;2022-12-18T12:07:59;97050.16;;;4.13;47.11
75521;BME280;64102;48.628;9.002;2022-12-18T12:22:03;97032.78;;;1.56;55.04
75521;BME280;64102;48.628;9.002;2022-12-18T12:32:35;97026.88;;;1.12;56.62
75521;BME280;64102;48.628;9.002;2022-12-18T12:40:18;97036.97;;;0.22;59.55
75521;BME280;64102;48.628;9.002;2022-12-18T12:42:51;97041.13;;;0.48;59.01
75521;BME280;64102;48.628;9.002;2022-12-18T12:46:06;97042.22;;;0.64;59.10
75521;BME280;64102;48.628;9.002;2022-12-18T12:51:26;97051.69;;;0.61;59.73
75521;BME280;64102;48.628;9.002;2022-12-18T12:53:54;97054.38;;;0.31;59.67
75521;BME280;64102;48.628;9.002;2022-12-18T12:56:22;97056.09;;;0.06;60.40
75521;BME280;64102;48.628;9.002;2022-12-18T12:59:04;97055.38;;;0.27;59.99
75521;BME280;64102;48.628;9.002;2022-12-18T13:04:18;97057.91;;;0.27;59.50
75521;BME280;64102;48.628;9.002;2022-12-18T13:13:12;97065.94;;;0.15;60.40
75521;BME280;64102;48.628;9.002;2022-12-18T13:16:04;97064.09;;;-0.05;61.27
75521;BME280;64102;48.628;9.002;2022-12-18T13:18:30;97064.38;;;-0.14;61.24
75521;BME280;64102;48.628;9.002;2022-12-18T13:36:42;97048.81;;;-1.71;68.26
75521;BME280;64102;48.628;9.002;2022-12-18T13:41:40;97047.47;;;-1.85;67.49
75521;BME280;64102;48.628;9.002;2022-12-18T13:44:24;97045.94;;;-1.59;66.97
75521;BME280;64102;48.628;9.002;2022-12-18T13:46:51;97038.28;;;-1.56;66.58
75521;BME280;64102;48.628;9.002;2022-12-18T13:49:36;97044.16;;;-1.87;67.49
75521;BME280;64102;48.628;9.002;2022-12-18T13:52:15;97040.16;;;-1.95;68.26
75521;BME280;64102;48.628;9.002;2022-12-18T13:54:42;97041.44;;;-1.79;68.33
75521;BME280;64102;48.628;9.002;2022-12-18T13:59:54;97042.69;;;-1.63;68.76
75521;BME280;64102;48.628;9.002;2022-12-18T14:02:22;97045.09;;;-1.91;69.67
75521;BME280;64102;48.628;9.002;2022-12-18T14:04:49;97041.53;;;-2.14;71.07
75521;BME280;64102;48.628;9.002;2022-12-18T14:07:26;97051.63;;;-2.14;70.73
75521;BME280;64102;48.628;9.002;2022-12-18T14:09:55;97045.81;;;-2.53;71.51
75521;BME280;64102;48.628;9.002;2022-12-18T14:12:24;97047.28;;;-2.80;72.64
75521;BME280;64102;48.628;9.002;2022-12-18T14:15:25;97045.41;;;-3.09;74.41
75521;BME280;64102;48.628;9.002;2022-12-18T14:17:59;97044.53;;;-3.08;73.74
75521;BME280;64102;48.628;9.002;2022-12-18T14:20:27;97047.88;;;-3.06;73.55
75521;BME280;64102;48.628;9.002;2022-12-18T14:22:54;97045.44;;;-3.10;73.70
75521;BME280;64102;48.628;9.002;2022-12-18T14:25:25;97047.22;;;-3.16;73.22
75521;BME280;64102;48.628;9.002;2022-12-18T14:30:39;97052.25;;;-3.55;75.35
75521;BME280;64102;48.628;9.002;2022-12-18T14:33:14;97049.13;;;-3.68;76.01
75521;BME280;64102;48.628;9.002;2022-12-18T14:35:42;97048.38;;;-3.72;76.97
75521;BME280;64102;48.628;9.002;2022-12-18T14:38:19;97045.97;;;-3.78;77.32
75521;BME280;64102;48.628;9.002;2022-12-18T14:40:46;97049.72;;;-3.98;77.94
75521;BME280;64102;48.628;9.002;2022-12-18T14:43:12;97052.69;;;-4.24;79.01
75521;BME280;64102;48.628;9.002;2022-12-18T14:45:39;97050.34;;;-4.36;79.71
75521;BME280;64102;48.628;9.002;2022-12-18T14:51:06;97055.69;;;-4.55;80.23
75521;BME280;64102;48.628;9.002;2022-12-18T14:55:57;97062.84;;;-4.82;81.79
75521;BME280;64102;48.628;9.002;2022-12-18T14:58:22;97056.28;;;-4.94;82.16
75521;BME280;64102;48.628;9.002;2022-12-18T15:00:48;97054.78;;;-5.07;82.21
75521;BME280;64102;48.628;9.002;2022-12-18T15:03:18;97053.31;;;-5.22;83.64